sensor_id;sensor_type;location;lat;lon;timestamp;temperature;humidity
24035;DHT22;12242;50.952;4.678;2022-11-15T00:01:16;13.40;99.90
24035;DHT22;12242;50.952;4.678;2022-11-15T00:03:45;13.40;99.90
24035;DHT22;12242;50.952;4.678;2022-11-15T00:06:13;13.40;99.90
24035;DHT22;12242;50.952;4.678;2022-11-15T00:08:40;13.40;99.90
24035;DHT22;12242;50.952;4.678;2022-11-15T00:11:12;13.40;99.90
24035;DHT22;12242;50.952;4.678;2022-11-15T00:13:40;13.40;99.90
24035;DHT22;12242;50.952;4.678;2022-11-15T00:16:11;13.40;99.90
24035;DHT22;12242;50.952;4.678;2022-11-15T00:18:39;13.40;99.90
24035;DHT22;12242;50.952;4.678;2022-11-15T00:21:14;13.40;99.90
24035;DHT22;12242;50.952;4.678;2022-11-15T00:23:41;13.40;99.90
24035;DHT22;12242;50.952;4.678;2022-11-15T00:26:12;13.30;99.90
24035;DHT22;12242;50.952;4.678;2022-11-15T00:28:41;13.30;99.90
24035;DHT22;12242;50.952;4.678;2022-11-15T00:31:13;13.30;99.90
24035;DHT22;12242;50.952;4.678;2022-11-15T00:33:43;13.30;99.90
24035;DHT22;12242;50.952;4.678;2022-11-15T00:36:11;13.30;99.90
24035;DHT22;12242;50.952;4.678;2022-11-15T00:38:39;13.40;99.90
24035;DHT22;12242;50.952;4.678;2022-11-15T00:41:07;13.40;99.90
24035;DHT22;12242;50.952;4.678;2022-11-15T00:43:36;13.40;99.90
24035;DHT22;12242;50.952;4.678;2022-11-15T00:46:03;13.40;99.90
24035;DHT22;12242;50.952;4.678;2022-11-15T00:48:32;13.40;99.90
24035;DHT22;12242;50.952;4.678;2022-11-15T00:50:59;13.50;99.90
24035;DHT22;12242;50.952;4.678;2022-11-15T00:53:26;13.40;99.90
24035;DHT22;12242;50.952;4.678;2022-11-15T00:55:54;13.40;99.90
24035;DHT22;12242;50.952;4.678;2022-11-15T00:58:21;13.40;99.90
24035;DHT22;12242;50.952;4.678;2022-11-15T01:00:48;13.50;99.90
24035;DHT22;12242;50.952;4.678;2022-11-15T01:03:16;13.50;99.90
24035;DHT22;12242;50.952;4.678;2022-11-15T01:05:43;13.40;99.90
24035;DHT22;12242;50.952;4.678;2022-11-15T01:08:15;13.40;99.90
24035;DHT22;12242;50.952;4.678;2022-11-15T01:10:43;13.50;99.90
24035;DHT22;12242;50.952;4.678;2022-11-15T01:13:10;13.40;99.90
24035;DHT22;12242;50.952;4.678;2022-11-15T01:15:41;13.50;99.90
24035;DHT22;12242;50.952;4.678;2022-11-15T01:18:09;13.50;99.90
24035;DHT22;12242;50.952;4.678;2022-11-15T01:20:43;13.50;99.90
24035;DHT22;12242;50.952;4.678;2022-11-15T01:23:10;13.50;99.90
24035;DHT22;12242;50.952;4.678;2022-11-15T01:25:41;13.60;99.90
24035;DHT22;12242;50.952;4.678;2022-11-15T01:28:09;13.60;99.90
24035;DHT22;12242;50.952;4.678;2022-11-15T01:30:36;13.60;99.90
24035;DHT22;12242;50.952;4.678;2022-11-15T01:33:03;13.70;99.90
24035;DHT22;12242;50.952;4.678;2022-11-15T01:35:30;13.70;99.90
24035;DHT22;12242;50.952;4.678;2022-11-15T01:38:01;13.70;99.90
24035;DHT22;12242;50.952;4.678;2022-11-15T01:40:28;13.80;99.90
24035;DHT22;12242;50.952;4.678;2022-11-15T01:42:57;13.80;99.90
24035;DHT22;12242;50.952;4.678;2022-11-15T01:45:25;13.80;99.90
24035;DHT22;12242;50.952;4.678;2022-11-15T01:47:56;13.80;99.90
24035;DHT22;12242;50.952;4.678;2022-11-15T01:50:29;13.80;99.90
24035;DHT22;12242;50.952;4.678;2022-11-15T01:52:57;13.80;99.90
24035;DHT22;12242;50.952;4.678;2022-11-15T01:55:28;13.80;99.90
24035;DHT22;12242;50.952;4.678;2022-11-15T01:57:59;13.80;99.90
24035;DHT22;12242;50.952;4.678;2022-11-15T02:00:29;13.80;99.90
24035;DHT22;12242;50.952;4.678;2022-11-15T02:02:56;13.80;99.90
24035;DHT22;12242;50.952;4.678;2022-11-15T02:05:24;13.80;99.90
24035;DHT22;12242;50.952;4.678;2022-11-15T02:07:52;13.90;99.90
24035;DHT22;12242;50.952;4.678;2022-11-15T02:10:23;13.90;99.90
24035;DHT22;12242;50.952;4.678;2022-11-15T02:12:51;14.00;99.90
24035;DHT22;12242;50.952;4.678;2022-11-15T02:15:19;14.00;99.90
24035;DHT22;12242;50.952;4.678;2022-11-15T02:18:12;14.00;99.90
24035;DHT22;12242;50.952;4.678;2022-11-15T02:20:52;14.00;99.90
24035;DHT22;12242;50.952;4.678;2022-11-15T02:29:04;14.10;99.90
24035;DHT22;12242;50.952;4.678;2022-11-15T02:31:51;14.10;99.90
24035;DHT22;12242;50.952;4.678;2022-11-15T02:34:51;14.10;99.90
24035;DHT22;12242;50.952;4.678;2022-11-15T02:38:27;14.10;99.90
24035;DHT22;12242;50.952;4.678;2022-11-15T02:43:12;14.20;99.90
24035;DHT22;12242;50.952;4.678;2022-11-15T02:46:20;14.20;99.90
24035;DHT22;12242;50.952;4.678;2022-11-15T02:49:11;14.20;99.90
24035;DHT22;12242;50.952;4.678;2022-11-15T02:51:42;14.20;99.90
24035;DHT22;12242;50.952;4.678;2022-11-15T02:54:14;14.20;99.90
24035;DHT22;12242;50.952;4.678;2022-11-15T02:56:44;14.30;99.90
24035;DHT22;12242;50.952;4.678;2022-11-15T03:04:33;14.30;99.90
24035;DHT22;12242;50.952;4.678;2022-11-15T03:09:45;14.30;99.90
24035;DHT22;12242;50.952;4.678;2022-11-15T03:12:34;14.30;99.90
24035;DHT22;12242;50.952;4.678;2022-11-15T03:15:18;14.30;99.90
24035;DHT22;12242;50.952;4.678;2022-11-15T03:17:52;14.30;99.90
24035;DHT22;12242;50.952;4.678;2022-11-15T03:20:20;14.20;99.90
24035;DHT22;12242;50.952;4.678;2022-11-15T03:22:48;14.30;99.90
24035;DHT22;12242;50.952;4.678;2022-11-15T03:25:20;14.40;99.90
24035;DHT22;12242;50.952;4.678;2022-11-15T03:27:55;14.30;99.90
24035;DHT22;12242;50.952;4.678;2022-11-15T03:30:27;14.30;99.90
24035;DHT22;12242;50.952;4.678;2022-11-15T03:32:57;14.30;99.90
24035;DHT22;12242;50.952;4.678;2022-11-15T03:35:27;14.30;99.90
24035;DHT22;12242;50.952;4.678;2022-11-15T03:38:25;14.40;99.90
24035;DHT22;12242;50.952;4.678;2022-11-15T03:41:00;14.10;99.90
24035;DHT22;12242;50.952;4.678;2022-11-15T03:43:46;14.20;99.90
24035;DHT22;12242;50.952;4.678;2022-11-15T03:46:17;14.10;99.90
24035;DHT22;12242;50.952;4.678;2022-11-15T03:48:50;14.10;99.90
24035;DHT22;12242;50.952;4.678;2022-11-15T03:51:21;14.20;99.90
24035;DHT22;12242;50.952;4.678;2022-11-15T03:53:48;14.10;99.90
24035;DHT22;12242;50.952;4.678;2022-11-15T03:56:15;14.10;99.90
24035;DHT22;12242;50.952;4.678;2022-11-15T03:58:43;14.00;99.90
24035;DHT22;12242;50.952;4.678;2022-11-15T04:01:12;14.00;99.90
24035;DHT22;12242;50.952;4.678;2022-11-15T04:03:40;13.90;99.90
24035;DHT22;12242;50.952;4.678;2022-11-15T04:06:09;14.00;99.90
24035;DHT22;12242;50.952;4.678;2022-11-15T04:08:36;14.20;99.90
24035;DHT22;12242;50.952;4.678;2022-11-15T04:11:08;14.10;99.90
24035;DHT22;12242;50.952;4.678;2022-11-15T04:13:36;14.20;99.90
24035;DHT22;12242;50.952;4.678;2022-11-15T04:16:03;14.10;99.90
24035;DHT22;12242;50.952;4.678;2022-11-15T04:18:31;14.10;99.90
24035;DHT22;12242;50.952;4.678;2022-11-15T04:20:58;14.00;99.90
24035;DHT22;12242;50.952;4.678;2022-11-15T04:23:44;14.00;99.90
24035;DHT22;12242;50.952;4.678;2022-11-15T04:26:33;14.10;99.90
24035;DHT22;12242;50.952;4.678;2022-11-15T04:29:01;14.10;99.90
24035;DHT22;12242;50.952;4.678;2022-11-15T04:31:47;14.20;99.90
24035;DHT22;12242;50.952;4.678;2022-11-15T04:34:17;14.10;99.90
24035;DHT22;12242;50.952;4.678;2022-11-15T04:36:44;14.20;99.90
24035;DHT22;12242;50.952;4.678;2022-11-15T04:39:30;14.20;99.90
24035;DHT22;12242;50.952;4.678;2022-11-15T04:41:57;14.10;99.90
24035;DHT22;12242;50.952;4.678;2022-11-15T04:44:27;14.10;99.90
24035;DHT22;12242;50.952;4.678;2022-11-15T04:46:54;14.10;99.90
24035;DHT22;12242;50.952;4.678;2022-11-15T04:49:22;14.10;99.90
24035;DHT22;12242;50.952;4.678;2022-11-15T04:51:51;14.10;99.90
24035;DHT22;12242;50.952;4.678;2022-11-15T04:54:19;14.00;99.90
24035;DHT22;12242;50.952;4.678;2022-11-15T04:56:49;14.00;99.90
24035;DHT22;12242;50.952;4.678;2022-11-15T04:59:16;14.00;99.90
24035;DHT22;12242;50.952;4.678;2022-11-15T05:01:43;14.00;99.90
24035;DHT22;12242;50.952;4.678;2022-11-15T05:04:11;14.00;99.90
24035;DHT22;12242;50.952;4.678;2022-11-15T05:06:49;14.00;99.90
24035;DHT22;12242;50.952;4.678;2022-11-15T05:09:18;14.00;99.90
24035;DHT22;12242;50.952;4.678;2022-11-15T05:11:47;14.00;99.90
24035;DHT22;12242;50.952;4.678;2022-11-15T05:14:17;13.80;99.90
24035;DHT22;12242;50.952;4.678;2022-11-15T05:16:45;13.70;99.90
24035;DHT22;12242;50.952;4.678;2022-11-15T05:19:14;13.30;99.90
24035;DHT22;12242;50.952;4.678;2022-11-15T05:21:42;13.20;99.90
24035;DHT22;12242;50.952;4.678;2022-11-15T05:24:10;13.20;99.90
24035;DHT22;12242;50.952;4.678;2022-11-15T05:26:38;13.30;99.90
24035;DHT22;12242;50.952;4.678;2022-11-15T05:29:05;13.40;99.90
24035;DHT22;12242;50.952;4.678;2022-11-15T05:31:39;13.50;99.90
24035;DHT22;12242;50.952;4.678;2022-11-15T05:34:08;13.50;99.90
24035;DHT22;12242;50.952;4.678;2022-11-15T05:36:38;13.50;99.90
24035;DHT22;12242;50.952;4.678;2022-11-15T05:39:06;13.50;99.90
24035;DHT22;12242;50.952;4.678;2022-11-15T05:44:07;13.60;99.90
24035;DHT22;12242;50.952;4.678;2022-11-15T05:46:37;13.60;99.90
24035;DHT22;12242;50.952;4.678;2022-11-15T05:49:07;13.50;99.90
24035;DHT22;12242;50.952;4.678;2022-11-15T05:51:38;13.50;99.90
24035;DHT22;12242;50.952;4.678;2022-11-15T05:54:06;13.50;99.90
24035;DHT22;12242;50.952;4.678;2022-11-15T05:56:33;13.40;99.90
24035;DHT22;12242;50.952;4.678;2022-11-15T05:59:02;13.50;99.90
24035;DHT22;12242;50.952;4.678;2022-11-15T06:01:30;13.40;99.90
24035;DHT22;12242;50.952;4.678;2022-11-15T06:04:00;13.40;99.90
24035;DHT22;12242;50.952;4.678;2022-11-15T06:06:28;13.30;99.90
24035;DHT22;12242;50.952;4.678;2022-11-15T06:08:58;13.20;99.90
24035;DHT22;12242;50.952;4.678;2022-11-15T06:11:25;13.10;99.90
24035;DHT22;12242;50.952;4.678;2022-11-15T06:13:56;13.00;99.90
24035;DHT22;12242;50.952;4.678;2022-11-15T06:16:25;12.90;99.90
24035;DHT22;12242;50.952;4.678;2022-11-15T06:18:53;13.00;99.90
24035;DHT22;12242;50.952;4.678;2022-11-15T06:21:20;13.00;99.90
24035;DHT22;12242;50.952;4.678;2022-11-15T06:23:47;12.90;99.90
24035;DHT22;12242;50.952;4.678;2022-11-15T06:26:15;13.00;99.90
24035;DHT22;12242;50.952;4.678;2022-11-15T06:28:42;12.90;99.90
24035;DHT22;12242;50.952;4.678;2022-11-15T06:31:11;12.90;99.90
24035;DHT22;12242;50.952;4.678;2022-11-15T06:33:39;12.80;99.90
24035;DHT22;12242;50.952;4.678;2022-11-15T06:36:09;12.80;99.90
24035;DHT22;12242;50.952;4.678;2022-11-15T06:38:44;12.80;99.90
24035;DHT22;12242;50.952;4.678;2022-11-15T06:41:13;12.70;99.90
24035;DHT22;12242;50.952;4.678;2022-11-15T06:43:41;12.70;99.90
24035;DHT22;12242;50.952;4.678;2022-11-15T06:46:08;12.60;99.90
24035;DHT22;12242;50.952;4.678;2022-11-15T06:48:36;12.60;99.90
24035;DHT22;12242;50.952;4.678;2022-11-15T06:51:04;12.60;99.90
24035;DHT22;12242;50.952;4.678;2022-11-15T06:53:32;12.60;99.90
24035;DHT22;12242;50.952;4.678;2022-11-15T06:56:01;12.60;99.90
24035;DHT22;12242;50.952;4.678;2022-11-15T06:58:30;12.60;99.90
24035;DHT22;12242;50.952;4.678;2022-11-15T07:01:03;12.60;99.90
24035;DHT22;12242;50.952;4.678;2022-11-15T07:03:34;12.70;99.90
24035;DHT22;12242;50.952;4.678;2022-11-15T07:06:03;12.70;99.90
24035;DHT22;12242;50.952;4.678;2022-11-15T07:08:34;12.60;99.90
24035;DHT22;12242;50.952;4.678;2022-11-15T07:11:04;12.60;99.90
24035;DHT22;12242;50.952;4.678;2022-11-15T07:13:32;12.60;99.90
24035;DHT22;12242;50.952;4.678;2022-11-15T07:16:06;12.60;99.90
24035;DHT22;12242;50.952;4.678;2022-11-15T07:18:35;12.60;99.90
24035;DHT22;12242;50.952;4.678;2022-11-15T07:21:05;12.70;99.90
24035;DHT22;12242;50.952;4.678;2022-11-15T07:23:39;12.60;99.90
24035;DHT22;12242;50.952;4.678;2022-11-15T07:26:07;12.50;99.90
24035;DHT22;12242;50.952;4.678;2022-11-15T07:28:35;12.30;99.90
24035;DHT22;12242;50.952;4.678;2022-11-15T07:31:08;12.40;99.90
24035;DHT22;12242;50.952;4.678;2022-11-15T07:33:38;12.40;99.90
24035;DHT22;12242;50.952;4.678;2022-11-15T07:36:06;12.40;99.90
24035;DHT22;12242;50.952;4.678;2022-11-15T07:38:34;12.40;99.90
24035;DHT22;12242;50.952;4.678;2022-11-15T07:41:08;12.50;99.90
24035;DHT22;12242;50.952;4.678;2022-11-15T07:43:36;12.40;99.90
24035;DHT22;12242;50.952;4.678;2022-11-15T07:46:07;12.50;99.90
24035;DHT22;12242;50.952;4.678;2022-11-15T07:48:38;12.50;99.90
24035;DHT22;12242;50.952;4.678;2022-11-15T07:51:16;12.60;99.90
24035;DHT22;12242;50.952;4.678;2022-11-15T07:53:44;12.60;99.90
24035;DHT22;12242;50.952;4.678;2022-11-15T07:56:13;12.50;99.90
24035;DHT22;12242;50.952;4.678;2022-11-15T07:58:41;12.50;99.90
24035;DHT22;12242;50.952;4.678;2022-11-15T08:01:09;12.40;99.90
24035;DHT22;12242;50.952;4.678;2022-11-15T08:03:37;12.40;99.90
24035;DHT22;12242;50.952;4.678;2022-11-15T08:06:05;12.40;99.90
24035;DHT22;12242;50.952;4.678;2022-11-15T08:08:35;12.50;99.90
24035;DHT22;12242;50.952;4.678;2022-11-15T08:11:02;12.50;99.90
24035;DHT22;12242;50.952;4.678;2022-11-15T08:13:30;12.50;99.90
24035;DHT22;12242;50.952;4.678;2022-11-15T08:16:02;12.50;99.90
24035;DHT22;12242;50.952;4.678;2022-11-15T08:18:32;12.50;99.90
24035;DHT22;12242;50.952;4.678;2022-11-15T08:21:05;12.60;99.90
24035;DHT22;12242;50.952;4.678;2022-11-15T08:23:34;12.60;99.90
24035;DHT22;12242;50.952;4.678;2022-11-15T08:26:03;12.70;99.90
24035;DHT22;12242;50.952;4.678;2022-11-15T08:28:34;13.10;99.90
24035;DHT22;12242;50.952;4.678;2022-11-15T08:31:02;13.80;99.90
24035;DHT22;12242;50.952;4.678;2022-11-15T08:33:33;14.30;99.90
24035;DHT22;12242;50.952;4.678;2022-11-15T08:36:00;14.40;99.90
24035;DHT22;12242;50.952;4.678;2022-11-15T08:38:28;14.30;99.90
24035;DHT22;12242;50.952;4.678;2022-11-15T08:41:02;14.40;99.90
24035;DHT22;12242;50.952;4.678;2022-11-15T08:43:32;14.40;99.90
24035;DHT22;12242;50.952;4.678;2022-11-15T08:46:02;14.70;99.90
24035;DHT22;12242;50.952;4.678;2022-11-15T08:48:30;15.30;99.90
24035;DHT22;12242;50.952;4.678;2022-11-15T08:51:00;15.60;99.90
24035;DHT22;12242;50.952;4.678;2022-11-15T08:53:27;15.80;99.90
24035;DHT22;12242;50.952;4.678;2022-11-15T08:55:57;15.70;99.90
24035;DHT22;12242;50.952;4.678;2022-11-15T08:58:24;15.50;99.90
24035;DHT22;12242;50.952;4.678;2022-11-15T09:00:51;15.30;99.90
24035;DHT22;12242;50.952;4.678;2022-11-15T09:03:18;15.30;99.90
24035;DHT22;12242;50.952;4.678;2022-11-15T09:05:46;15.10;99.90
24035;DHT22;12242;50.952;4.678;2022-11-15T09:08:14;14.80;99.90
24035;DHT22;12242;50.952;4.678;2022-11-15T09:11:05;14.70;99.90
24035;DHT22;12242;50.952;4.678;2022-11-15T09:13:35;14.30;99.90
24035;DHT22;12242;50.952;4.678;2022-11-15T09:16:07;14.30;99.90
24035;DHT22;12242;50.952;4.678;2022-11-15T09:18:37;14.60;99.90
24035;DHT22;12242;50.952;4.678;2022-11-15T09:21:04;15.20;99.90
24035;DHT22;12242;50.952;4.678;2022-11-15T09:23:31;16.20;99.90
24035;DHT22;12242;50.952;4.678;2022-11-15T09:26:04;16.90;99.90
24035;DHT22;12242;50.952;4.678;2022-11-15T09:28:31;17.50;99.90
24035;DHT22;12242;50.952;4.678;2022-11-15T09:31:02;17.90;99.90
24035;DHT22;12242;50.952;4.678;2022-11-15T09:33:30;18.00;99.90
24035;DHT22;12242;50.952;4.678;2022-11-15T09:36:05;17.40;99.90
24035;DHT22;12242;50.952;4.678;2022-11-15T09:38:34;17.20;99.90
24035;DHT22;12242;50.952;4.678;2022-11-15T09:47:10;18.10;99.90
24035;DHT22;12242;50.952;4.678;2022-11-15T09:49:42;17.90;99.90
24035;DHT22;12242;50.952;4.678;2022-11-15T09:52:11;18.20;99.90
24035;DHT22;12242;50.952;4.678;2022-11-15T09:54:40;19.00;99.50
24035;DHT22;12242;50.952;4.678;2022-11-15T09:57:31;19.70;98.90
24035;DHT22;12242;50.952;4.678;2022-11-15T10:00:18;20.30;96.90
24035;DHT22;12242;50.952;4.678;2022-11-15T10:03:10;20.80;96.30
24035;DHT22;12242;50.952;4.678;2022-11-15T10:05:49;21.10;94.50
24035;DHT22;12242;50.952;4.678;2022-11-15T10:11:02;22.10;91.70
24035;DHT22;12242;50.952;4.678;2022-11-15T10:13:53;22.50;93.70
24035;DHT22;12242;50.952;4.678;2022-11-15T10:24:44;21.80;90.50
24035;DHT22;12242;50.952;4.678;2022-11-15T10:27:18;21.80;90.30
24035;DHT22;12242;50.952;4.678;2022-11-15T10:29:48;20.90;91.30
24035;DHT22;12242;50.952;4.678;2022-11-15T10:32:18;20.30;92.50
24035;DHT22;12242;50.952;4.678;2022-11-15T10:34:48;19.80;91.90
24035;DHT22;12242;50.952;4.678;2022-11-15T10:37:28;19.50;92.90
24035;DHT22;12242;50.952;4.678;2022-11-15T10:40:23;19.60;93.80
24035;DHT22;12242;50.952;4.678;2022-11-15T10:43:16;19.20;92.70
24035;DHT22;12242;50.952;4.678;2022-11-15T10:45:45;19.10;93.20
24035;DHT22;12242;50.952;4.678;2022-11-15T10:50:42;19.30;94.10
24035;DHT22;12242;50.952;4.678;2022-11-15T10:55:49;20.00;94.50
24035;DHT22;12242;50.952;4.678;2022-11-15T10:58:34;20.40;93.40
24035;DHT22;12242;50.952;4.678;2022-11-15T11:01:19;20.30;92.30
24035;DHT22;12242;50.952;4.678;2022-11-15T11:04:09;20.70;92.80
24035;DHT22;12242;50.952;4.678;2022-11-15T11:09:33;20.40;92.00
24035;DHT22;12242;50.952;4.678;2022-11-15T11:12:01;19.90;92.20
24035;DHT22;12242;50.952;4.678;2022-11-15T11:14:34;19.20;92.50
24035;DHT22;12242;50.952;4.678;2022-11-15T11:17:10;18.60;93.60
24035;DHT22;12242;50.952;4.678;2022-11-15T11:22:28;17.80;95.50
24035;DHT22;12242;50.952;4.678;2022-11-15T11:25:07;17.70;95.80
24035;DHT22;12242;50.952;4.678;2022-11-15T11:30:31;17.20;96.00
24035;DHT22;12242;50.952;4.678;2022-11-15T11:35:38;17.00;96.70
24035;DHT22;12242;50.952;4.678;2022-11-15T11:38:23;16.90;96.90
24035;DHT22;12242;50.952;4.678;2022-11-15T11:47:11;16.70;97.40
24035;DHT22;12242;50.952;4.678;2022-11-15T11:49:52;16.60;97.50
24035;DHT22;12242;50.952;4.678;2022-11-15T11:52:34;16.40;98.10
24035;DHT22;12242;50.952;4.678;2022-11-15T11:55:20;16.30;98.20
24035;DHT22;12242;50.952;4.678;2022-11-15T12:00:59;16.10;98.70
24035;DHT22;12242;50.952;4.678;2022-11-15T12:03:53;16.10;99.10
24035;DHT22;12242;50.952;4.678;2022-11-15T12:06:37;16.20;99.20
24035;DHT22;12242;50.952;4.678;2022-11-15T12:15:15;16.10;99.00
24035;DHT22;12242;50.952;4.678;2022-11-15T12:17:44;16.00;98.80
24035;DHT22;12242;50.952;4.678;2022-11-15T12:20:16;16.00;99.70
24035;DHT22;12242;50.952;4.678;2022-11-15T12:25:22;16.00;99.70
24035;DHT22;12242;50.952;4.678;2022-11-15T12:28:03;16.20;99.70
24035;DHT22;12242;50.952;4.678;2022-11-15T12:30:56;16.20;99.80
24035;DHT22;12242;50.952;4.678;2022-11-15T12:33:35;16.10;99.80
24035;DHT22;12242;50.952;4.678;2022-11-15T12:43:58;15.90;99.90
24035;DHT22;12242;50.952;4.678;2022-11-15T12:49:09;15.90;99.90
24035;DHT22;12242;50.952;4.678;2022-11-15T12:59:58;15.50;99.90
24035;DHT22;12242;50.952;4.678;2022-11-15T13:02:34;15.40;99.90
24035;DHT22;12242;50.952;4.678;2022-11-15T13:10:32;15.50;99.90
24035;DHT22;12242;50.952;4.678;2022-11-15T13:13:02;15.60;99.90
24035;DHT22;12242;50.952;4.678;2022-11-15T13:18:26;15.60;99.90
24035;DHT22;12242;50.952;4.678;2022-11-15T13:20:55;15.70;99.90
24035;DHT22;12242;50.952;4.678;2022-11-15T13:23:28;15.70;99.90
24035;DHT22;12242;50.952;4.678;2022-11-15T13:26:14;15.70;99.90
24035;DHT22;12242;50.952;4.678;2022-11-15T13:28:45;15.80;99.90
24035;DHT22;12242;50.952;4.678;2022-11-15T13:31:36;15.90;99.90
24035;DHT22;12242;50.952;4.678;2022-11-15T13:34:29;15.90;99.90
24035;DHT22;12242;50.952;4.678;2022-11-15T13:39:49;16.00;99.90
24035;DHT22;12242;50.952;4.678;2022-11-15T13:42:21;15.90;99.90
24035;DHT22;12242;50.952;4.678;2022-11-15T13:45:00;15.90;99.90
24035;DHT22;12242;50.952;4.678;2022-11-15T13:47:29;15.90;99.90
24035;DHT22;12242;50.952;4.678;2022-11-15T13:49:59;15.90;99.90
24035;DHT22;12242;50.952;4.678;2022-11-15T13:52:33;15.90;99.90
24035;DHT22;12242;50.952;4.678;2022-11-15T13:57:48;15.90;99.90
24035;DHT22;12242;50.952;4.678;2022-11-15T14:00:37;15.90;99.90
24035;DHT22;12242;50.952;4.678;2022-11-15T14:03:26;15.80;99.90
24035;DHT22;12242;50.952;4.678;2022-11-15T14:06:15;15.80;99.90
24035;DHT22;12242;50.952;4.678;2022-11-15T14:11:34;15.90;99.90
24035;DHT22;12242;50.952;4.678;2022-11-15T14:14:13;16.00;99.90
24035;DHT22;12242;50.952;4.678;2022-11-15T14:16:48;16.00;99.90
24035;DHT22;12242;50.952;4.678;2022-11-15T14:22:13;16.10;99.90
24035;DHT22;12242;50.952;4.678;2022-11-15T14:24:43;16.00;99.90
24035;DHT22;12242;50.952;4.678;2022-11-15T14:27:28;16.00;99.90
24035;DHT22;12242;50.952;4.678;2022-11-15T14:29:56;15.90;99.90
24035;DHT22;12242;50.952;4.678;2022-11-15T14:32:25;15.90;99.90
24035;DHT22;12242;50.952;4.678;2022-11-15T14:35:02;15.90;99.90
24035;DHT22;12242;50.952;4.678;2022-11-15T14:37:32;15.90;99.90
24035;DHT22;12242;50.952;4.678;2022-11-15T14:40:03;15.90;99.90
24035;DHT22;12242;50.952;4.678;2022-11-15T14:42:32;15.90;99.90
24035;DHT22;12242;50.952;4.678;2022-11-15T14:44:59;15.70;99.90
24035;DHT22;12242;50.952;4.678;2022-11-15T14:47:29;15.60;99.90
24035;DHT22;12242;50.952;4.678;2022-11-15T14:49:58;15.40;99.90
24035;DHT22;12242;50.952;4.678;2022-11-15T14:52:30;15.40;99.90
24035;DHT22;12242;50.952;4.678;2022-11-15T14:55:02;15.30;99.90
24035;DHT22;12242;50.952;4.678;2022-11-15T14:57:32;15.30;99.90
24035;DHT22;12242;50.952;4.678;2022-11-15T15:00:02;15.30;99.90
24035;DHT22;12242;50.952;4.678;2022-11-15T15:02:30;15.30;99.90
24035;DHT22;12242;50.952;4.678;2022-11-15T15:05:00;15.30;99.90
24035;DHT22;12242;50.952;4.678;2022-11-15T15:07:30;15.30;99.90
24035;DHT22;12242;50.952;4.678;2022-11-15T15:09:57;15.30;99.90
24035;DHT22;12242;50.952;4.678;2022-11-15T15:12:48;15.20;99.90
24035;DHT22;12242;50.952;4.678;2022-11-15T15:15:23;15.20;99.90
24035;DHT22;12242;50.952;4.678;2022-11-15T15:17:53;15.20;99.90
24035;DHT22;12242;50.952;4.678;2022-11-15T15:20:23;15.20;99.90
24035;DHT22;12242;50.952;4.678;2022-11-15T15:22:50;15.20;99.90
24035;DHT22;12242;50.952;4.678;2022-11-15T15:25:23;15.00;99.90
24035;DHT22;12242;50.952;4.678;2022-11-15T15:27:54;15.00;99.90
24035;DHT22;12242;50.952;4.678;2022-11-15T15:30:25;14.90;99.90
24035;DHT22;12242;50.952;4.678;2022-11-15T15:32:53;14.90;99.90
24035;DHT22;12242;50.952;4.678;2022-11-15T15:35:22;14.90;99.90
24035;DHT22;12242;50.952;4.678;2022-11-15T15:37:50;15.00;99.90
24035;DHT22;12242;50.952;4.678;2022-11-15T15:40:20;14.90;99.90
24035;DHT22;12242;50.952;4.678;2022-11-15T15:42:48;14.80;99.90
24035;DHT22;12242;50.952;4.678;2022-11-15T15:45:17;14.90;99.90
24035;DHT22;12242;50.952;4.678;2022-11-15T15:47:48;14.90;99.90
24035;DHT22;12242;50.952;4.678;2022-11-15T15:50:28;14.90;99.90
24035;DHT22;12242;50.952;4.678;2022-11-15T15:52:59;14.70;99.90
24035;DHT22;12242;50.952;4.678;2022-11-15T15:55:27;14.80;99.90
24035;DHT22;12242;50.952;4.678;2022-11-15T15:57:57;14.60;99.90
24035;DHT22;12242;50.952;4.678;2022-11-15T16:00:25;14.70;99.90
24035;DHT22;12242;50.952;4.678;2022-11-15T16:02:53;14.60;99.90
24035;DHT22;12242;50.952;4.678;2022-11-15T16:05:21;14.60;99.90
24035;DHT22;12242;50.952;4.678;2022-11-15T16:07:50;14.60;99.90
24035;DHT22;12242;50.952;4.678;2022-11-15T16:10:21;14.60;99.90
24035;DHT22;12242;50.952;4.678;2022-11-15T16:12:49;14.70;99.90
24035;DHT22;12242;50.952;4.678;2022-11-15T16:15:18;14.70;99.90
24035;DHT22;12242;50.952;4.678;2022-11-15T16:17:51;14.70;99.90
24035;DHT22;12242;50.952;4.678;2022-11-15T16:23:09;14.60;99.90
24035;DHT22;12242;50.952;4.678;2022-11-15T16:28:18;14.40;99.90
24035;DHT22;12242;50.952;4.678;2022-11-15T16:30:46;14.40;99.90
24035;DHT22;12242;50.952;4.678;2022-11-15T16:33:21;14.50;99.90
24035;DHT22;12242;50.952;4.678;2022-11-15T16:35:51;14.60;99.90
24035;DHT22;12242;50.952;4.678;2022-11-15T16:38:21;14.60;99.90
24035;DHT22;12242;50.952;4.678;2022-11-15T16:40:48;14.50;99.90
24035;DHT22;12242;50.952;4.678;2022-11-15T16:43:18;14.60;99.90
24035;DHT22;12242;50.952;4.678;2022-11-15T16:45:46;14.60;99.90
24035;DHT22;12242;50.952;4.678;2022-11-15T16:48:25;14.50;99.90
24035;DHT22;12242;50.952;4.678;2022-11-15T16:50:57;14.50;99.90
24035;DHT22;12242;50.952;4.678;2022-11-15T16:53:27;14.50;99.90
24035;DHT22;12242;50.952;4.678;2022-11-15T16:55:55;14.50;99.90
24035;DHT22;12242;50.952;4.678;2022-11-15T16:58:23;14.60;99.90
24035;DHT22;12242;50.952;4.678;2022-11-15T17:00:55;14.50;99.90
24035;DHT22;12242;50.952;4.678;2022-11-15T17:03:23;14.50;99.90
24035;DHT22;12242;50.952;4.678;2022-11-15T17:05:51;14.60;99.90
24035;DHT22;12242;50.952;4.678;2022-11-15T17:08:21;14.60;99.90
24035;DHT22;12242;50.952;4.678;2022-11-15T17:10:52;14.60;99.90
24035;DHT22;12242;50.952;4.678;2022-11-15T17:13:19;14.70;99.90
24035;DHT22;12242;50.952;4.678;2022-11-15T17:15:47;14.70;99.90
24035;DHT22;12242;50.952;4.678;2022-11-15T17:18:14;14.70;99.90
24035;DHT22;12242;50.952;4.678;2022-11-15T17:20:42;14.60;99.90
24035;DHT22;12242;50.952;4.678;2022-11-15T17:23:12;14.70;99.90
24035;DHT22;12242;50.952;4.678;2022-11-15T17:25:41;14.80;99.90
24035;DHT22;12242;50.952;4.678;2022-11-15T17:28:09;14.80;99.90
24035;DHT22;12242;50.952;4.678;2022-11-15T17:30:40;14.70;99.90
24035;DHT22;12242;50.952;4.678;2022-11-15T17:33:09;14.70;99.90
24035;DHT22;12242;50.952;4.678;2022-11-15T17:35:36;14.70;99.90
24035;DHT22;12242;50.952;4.678;2022-11-15T17:38:04;14.70;99.90
24035;DHT22;12242;50.952;4.678;2022-11-15T17:40:31;14.60;99.90
24035;DHT22;12242;50.952;4.678;2022-11-15T17:42:59;14.60;99.90
24035;DHT22;12242;50.952;4.678;2022-11-15T17:45:28;14.50;99.90
24035;DHT22;12242;50.952;4.678;2022-11-15T17:47:56;14.60;99.90
24035;DHT22;12242;50.952;4.678;2022-11-15T17:50:23;14.60;99.90
24035;DHT22;12242;50.952;4.678;2022-11-15T17:52:53;14.60;99.90